createdAt,value
2023-05-15T00:01:01.211Z,24.92
2023-05-15T00:03:33.406Z,25.06
2023-05-15T00:06:01.701Z,24.71
2023-05-15T00:08:31.307Z,24.54
2023-05-15T00:11:02.145Z,24.55
2023-05-15T00:13:30.955Z,24.31
2023-05-15T00:15:59.271Z,24.16
2023-05-15T00:18:27.799Z,24.52
2023-05-15T00:20:56.166Z,24.36
2023-05-15T00:23:24.450Z,24.28
2023-05-15T00:25:54.053Z,24.10
2023-05-15T00:28:22.329Z,24.19
2023-05-15T00:30:51.926Z,24.21
2023-05-15T00:33:20.262Z,24.16
2023-05-15T00:35:48.593Z,23.92
2023-05-15T00:38:16.815Z,23.55
2023-05-15T00:40:45.785Z,23.85
2023-05-15T00:43:16.266Z,23.51
2023-05-15T00:45:45.422Z,24.45
2023-05-15T00:48:14.044Z,23.83
2023-05-15T00:50:42.574Z,23.75
2023-05-15T00:53:10.997Z,24.17
2023-05-15T00:55:39.638Z,24.06
2023-05-15T00:58:08.672Z,23.76
2023-05-15T01:00:38.323Z,23.32
2023-05-15T01:03:06.940Z,24.04
2023-05-15T01:05:35.316Z,24.08
2023-05-15T01:08:08.776Z,23.19
2023-05-15T01:10:37.585Z,24.18
2023-05-15T01:13:06.302Z,24.60
2023-05-15T01:15:34.687Z,24.19
2023-05-15T01:18:06.101Z,23.83
2023-05-15T01:20:38.872Z,23.63
2023-05-15T01:23:11.317Z,24.10
2023-05-15T01:25:48.110Z,22.82
2023-05-15T01:28:20.866Z,22.77
2023-05-15T01:30:50.262Z,22.83
2023-05-15T01:33:23.623Z,22.74
2023-05-15T01:35:56.178Z,22.59
2023-05-15T01:38:31.143Z,23.12
2023-05-15T01:41:03.746Z,23.15
2023-05-15T01:43:34.198Z,23.82
2023-05-15T01:46:02.532Z,24.06
2023-05-15T01:48:31.663Z,24.36
2023-05-15T01:51:03.408Z,23.88
2023-05-15T01:53:33.149Z,23.39
2023-05-15T01:56:01.914Z,22.60
2023-05-15T01:58:30.599Z,22.45
2023-05-15T02:01:01.259Z,22.79
2023-05-15T02:03:29.349Z,23.43
2023-05-15T02:05:57.773Z,23.17
2023-05-15T02:08:28.876Z,23.92
2023-05-15T02:10:58.248Z,23.59
2023-05-15T02:13:27.161Z,23.50
2023-05-15T02:15:55.803Z,22.78
2023-05-15T02:18:25.675Z,23.38
2023-05-15T02:20:53.965Z,22.93
2023-05-15T02:23:22.246Z,22.89
2023-05-15T02:26:02.549Z,23.46
2023-05-15T02:28:36.547Z,23.23
2023-05-15T02:31:09.732Z,23.04
2023-05-15T02:33:43.815Z,22.64
2023-05-15T02:36:15.535Z,22.96
2023-05-15T02:38:48.534Z,22.84
2023-05-15T02:41:17.976Z,23.14
2023-05-15T02:43:48.259Z,23.86
2023-05-15T02:46:17.856Z,24.39
2023-05-15T02:48:48.284Z,24.59
2023-05-15T02:51:16.542Z,23.98
2023-05-15T02:53:45.242Z,24.02
2023-05-15T02:56:13.502Z,24.13
2023-05-15T02:58:41.817Z,24.69
2023-05-15T03:01:10.078Z,24.63
2023-05-15T03:03:38.316Z,24.41
2023-05-15T03:06:08.309Z,24.29
2023-05-15T03:08:36.533Z,23.77
2023-05-15T03:11:05.435Z,24.56
2023-05-15T03:13:33.749Z,24.12
2023-05-15T03:16:02.152Z,23.98
2023-05-15T03:18:30.503Z,23.75
2023-05-15T03:20:58.823Z,23.93
2023-05-15T03:23:28.418Z,23.59
2023-05-15T03:25:56.671Z,23.73
2023-05-15T03:28:25.088Z,23.24
2023-05-15T03:30:53.300Z,23.06
2023-05-15T03:33:21.579Z,23.60
2023-05-15T03:35:51.204Z,23.32
2023-05-15T03:38:19.517Z,23.67
2023-05-15T03:40:50.993Z,23.91
2023-05-15T03:43:19.532Z,23.90
2023-05-15T03:45:47.781Z,24.24
2023-05-15T03:48:16.036Z,23.68
2023-05-15T03:50:45.788Z,24.31
2023-05-15T03:53:14.121Z,23.52
2023-05-15T03:55:42.402Z,23.26
2023-05-15T03:58:11.977Z,24.01
2023-05-15T04:00:40.189Z,23.92
2023-05-15T04:03:08.566Z,23.72
2023-05-15T04:05:36.994Z,24.42
2023-05-15T04:08:05.634Z,24.30
2023-05-15T04:10:33.898Z,24.65
2023-05-15T04:13:02.105Z,24.31
2023-05-15T04:15:31.765Z,24.34
2023-05-15T04:18:00.030Z,25.03
2023-05-15T04:20:28.419Z,24.00
2023-05-15T04:22:56.732Z,23.56
2023-05-15T04:25:25.688Z,24.05
2023-05-15T04:27:54.106Z,24.22
2023-05-15T04:30:22.370Z,24.18
2023-05-15T04:32:52.748Z,23.88
2023-05-15T04:35:21.106Z,24.09
2023-05-15T04:37:49.354Z,24.88
2023-05-15T04:40:18.056Z,24.22
2023-05-15T04:42:46.411Z,23.94
2023-05-15T04:45:14.801Z,24.77
2023-05-15T04:47:43.148Z,25.49
2023-05-15T04:50:13.027Z,25.05
2023-05-15T04:52:41.260Z,25.28
2023-05-15T04:55:11.523Z,24.69
2023-05-15T04:57:39.814Z,24.56
2023-05-15T05:00:12.291Z,25.54
2023-05-15T05:02:40.981Z,26.04
2023-05-15T05:05:10.039Z,25.82
2023-05-15T05:07:39.621Z,25.17
2023-05-15T05:10:09.487Z,25.40
2023-05-15T05:12:37.756Z,25.47
2023-05-15T05:15:07.002Z,25.44
2023-05-15T05:17:35.300Z,24.79
2023-05-15T05:20:03.582Z,24.37
2023-05-15T05:22:31.866Z,24.67
2023-05-15T05:25:01.779Z,24.98
2023-05-15T05:27:30.520Z,24.23
2023-05-15T05:29:58.710Z,24.97
2023-05-15T05:32:26.998Z,25.35
2023-05-15T05:34:55.241Z,25.77
2023-05-15T05:37:23.570Z,25.78
2023-05-15T05:39:51.800Z,24.82
2023-05-15T05:42:21.403Z,24.74
2023-05-15T05:44:49.615Z,25.08
2023-05-15T05:47:17.914Z,24.87
2023-05-15T05:49:48.151Z,24.43
2023-05-15T05:52:17.006Z,24.62
2023-05-15T05:54:46.405Z,24.01
2023-05-15T05:57:14.761Z,23.48
2023-05-15T05:59:44.368Z,24.00
2023-05-15T06:02:13.539Z,24.35
2023-05-15T06:04:41.928Z,23.29
2023-05-15T06:07:10.521Z,24.45
2023-05-15T06:09:38.823Z,24.24
2023-05-15T06:12:08.388Z,25.03
2023-05-15T06:14:37.075Z,23.67
2023-05-15T06:17:06.889Z,24.01
2023-05-15T06:19:35.193Z,24.48
2023-05-15T06:22:03.447Z,23.76
2023-05-15T06:24:31.694Z,24.22
2023-05-15T06:27:00.068Z,24.31
2023-05-15T06:29:28.334Z,24.30
2023-05-15T06:31:56.670Z,25.37
2023-05-15T06:34:26.283Z,24.21
2023-05-15T06:36:54.520Z,25.49
2023-05-15T06:39:22.716Z,25.09
2023-05-15T06:41:51.125Z,24.72
2023-05-15T06:44:19.409Z,25.08
2023-05-15T06:46:47.751Z,25.43
2023-05-15T06:49:16.099Z,24.84
2023-05-15T06:51:45.700Z,24.59
2023-05-15T06:54:13.962Z,24.59
2023-05-15T06:56:42.448Z,25.38
2023-05-15T06:59:10.699Z,25.53
2023-05-15T07:01:39.170Z,26.30
2023-05-15T07:04:07.826Z,25.05
2023-05-15T07:06:36.469Z,25.27
2023-05-15T07:09:06.454Z,25.36
2023-05-15T07:11:37.374Z,25.79
2023-05-15T07:14:05.702Z,25.38
2023-05-15T07:16:33.997Z,24.62
2023-05-15T07:19:02.545Z,25.43
2023-05-15T07:21:30.892Z,25.07
2023-05-15T07:23:59.128Z,25.42
2023-05-15T07:26:36.199Z,24.77
2023-05-15T07:29:10.318Z,25.98
2023-05-15T07:31:40.425Z,25.14
2023-05-15T07:34:08.791Z,25.81
2023-05-15T07:36:37.038Z,24.70
2023-05-15T07:39:05.480Z,24.42
2023-05-15T07:41:35.042Z,27.00
2023-05-15T07:44:03.305Z,25.53
2023-05-15T07:46:31.655Z,25.93
2023-05-15T07:49:00.016Z,26.13
2023-05-15T07:51:28.257Z,26.07
2023-05-15T07:53:56.649Z,26.08
2023-05-15T07:56:24.952Z,26.88
2023-05-15T07:58:54.622Z,26.45
2023-05-15T08:01:22.912Z,27.03
2023-05-15T08:03:51.329Z,27.44
2023-05-15T08:06:19.657Z,27.24
2023-05-15T08:08:47.848Z,27.01
2023-05-15T08:11:16.112Z,27.63
2023-05-15T08:13:45.591Z,26.98
2023-05-15T08:16:15.276Z,26.38
2023-05-15T08:18:43.599Z,27.52
2023-05-15T08:21:12.194Z,27.78
2023-05-15T08:23:40.393Z,27.81
2023-05-15T08:26:08.605Z,28.89
2023-05-15T08:28:36.881Z,27.20
2023-05-15T08:31:05.263Z,28.10
2023-05-15T08:33:34.943Z,29.27
2023-05-15T08:36:03.276Z,29.27
2023-05-15T08:38:31.627Z,28.08
2023-05-15T08:41:05.310Z,28.06
2023-05-15T08:43:36.187Z,29.04
2023-05-15T08:46:04.628Z,29.64
2023-05-15T08:48:38.294Z,28.94
2023-05-15T08:51:10.556Z,31.22
2023-05-15T08:53:39.256Z,30.36
2023-05-15T08:56:07.853Z,29.50
2023-05-15T08:58:36.239Z,29.72
2023-05-15T09:01:04.850Z,28.68
2023-05-15T09:03:34.603Z,30.17
2023-05-15T09:06:04.485Z,29.60
2023-05-15T09:08:33.698Z,31.60
2023-05-15T09:11:03.795Z,32.60
2023-05-15T09:13:32.292Z,31.45
2023-05-15T09:16:01.378Z,31.42
2023-05-15T09:18:30.025Z,33.11
2023-05-15T09:21:26.166Z,32.63
2023-05-15T09:23:54.432Z,32.48
2023-05-15T09:26:22.686Z,31.19
2023-05-15T09:28:51.049Z,32.03
2023-05-15T09:31:20.594Z,30.75
2023-05-15T09:33:48.862Z,32.83
2023-05-15T09:36:23.300Z,31.99
2023-05-15T09:38:59.388Z,30.27
2023-05-15T09:41:28.741Z,29.69
2023-05-15T09:43:57.494Z,30.84
2023-05-15T09:46:25.992Z,28.88
2023-05-15T09:48:55.855Z,29.97
2023-05-15T09:51:25.518Z,31.53
2023-05-15T09:53:54.308Z,30.38
2023-05-15T09:56:23.011Z,30.45
2023-05-15T09:58:54.659Z,29.93
2023-05-15T10:01:23.430Z,31.85
2023-05-15T10:04:01.156Z,30.46
2023-05-15T10:06:36.175Z,30.60
2023-05-15T10:09:05.277Z,32.50
2023-05-15T10:11:35.737Z,31.67
2023-05-15T10:14:04.162Z,30.60
2023-05-15T10:16:34.787Z,30.39
2023-05-15T10:19:05.375Z,30.85
2023-05-15T10:21:36.086Z,30.31
2023-05-15T10:24:05.541Z,30.23
2023-05-15T10:26:38.671Z,31.29
2023-05-15T10:29:08.212Z,31.05
2023-05-15T10:31:37.077Z,30.37
2023-05-15T10:34:05.940Z,31.68
2023-05-15T10:36:36.781Z,31.09
2023-05-15T10:39:06.660Z,30.81
2023-05-15T10:41:37.417Z,32.24
2023-05-15T10:44:06.483Z,33.29
2023-05-15T10:46:36.312Z,33.90
2023-05-15T10:49:05.528Z,32.52
2023-05-15T10:51:36.822Z,33.61
2023-05-15T10:54:05.890Z,34.02
2023-05-15T10:56:35.744Z,33.34
2023-05-15T10:59:08.031Z,33.75
2023-05-15T11:01:38.068Z,35.12
2023-05-15T11:04:08.577Z,35.43
2023-05-15T11:06:38.845Z,34.69
2023-05-15T11:09:34.474Z,35.50
2023-05-15T11:12:03.681Z,35.55
2023-05-15T11:14:32.926Z,34.99
2023-05-15T11:17:04.000Z,35.04
2023-05-15T11:19:40.766Z,32.40
2023-05-15T11:22:20.643Z,34.27
2023-05-15T11:24:51.974Z,32.91
2023-05-15T11:27:22.376Z,32.29
2023-05-15T11:30:08.920Z,32.87
2023-05-15T11:32:45.131Z,33.37
2023-05-15T11:35:13.869Z,34.15
2023-05-15T11:37:45.327Z,33.94
2023-05-15T11:40:21.322Z,34.29
2023-05-15T11:43:06.824Z,33.98
2023-05-15T11:45:37.157Z,31.70
2023-05-15T11:48:06.560Z,30.78
2023-05-15T11:50:36.273Z,31.42
2023-05-15T11:53:07.725Z,30.51
2023-05-15T11:55:37.612Z,27.58
2023-05-15T11:58:06.514Z,26.97
2023-05-15T12:00:35.181Z,26.13
2023-05-15T12:03:04.708Z,26.85
2023-05-15T12:05:33.177Z,26.26
2023-05-15T12:08:02.373Z,25.33
2023-05-15T12:10:33.185Z,26.28
2023-05-15T12:13:01.494Z,26.01
2023-05-15T12:15:29.855Z,26.51
2023-05-15T12:17:58.127Z,27.16
2023-05-15T12:20:26.734Z,25.90
2023-05-15T12:22:55.135Z,27.69
2023-05-15T12:25:23.363Z,28.50
2023-05-15T12:27:53.011Z,28.86
2023-05-15T12:30:21.293Z,30.40
2023-05-15T12:32:49.732Z,30.00
2023-05-15T12:35:18.036Z,29.86
2023-05-15T12:37:46.621Z,30.07
2023-05-15T12:40:15.262Z,32.06
2023-05-15T12:42:45.228Z,30.26
2023-05-15T12:45:15.847Z,30.82
2023-05-15T12:47:45.094Z,31.08
2023-05-15T12:50:17.136Z,32.49
2023-05-15T12:52:52.852Z,30.71
2023-05-15T12:55:24.472Z,31.50
2023-05-15T12:57:52.987Z,32.00
2023-05-15T13:00:24.027Z,31.71
2023-05-15T13:02:54.375Z,31.46
2023-05-15T13:05:24.174Z,31.60
2023-05-15T13:07:52.909Z,32.63
2023-05-15T13:10:23.297Z,33.95
2023-05-15T13:12:53.398Z,32.56
2023-05-15T13:15:27.456Z,31.95
2023-05-15T13:17:59.227Z,33.84
2023-05-15T13:20:28.420Z,32.33
2023-05-15T13:22:56.778Z,32.92
2023-05-15T13:25:25.033Z,32.62
2023-05-15T13:27:53.463Z,33.02
2023-05-15T13:30:21.752Z,30.51
2023-05-15T13:32:54.782Z,31.17
2023-05-15T13:35:24.034Z,29.70
2023-05-15T13:37:52.323Z,31.07
2023-05-15T13:40:21.270Z,29.73
2023-05-15T13:42:50.197Z,29.44
2023-05-15T13:45:18.499Z,29.74
2023-05-15T13:47:46.824Z,32.71
2023-05-15T13:50:16.872Z,30.16
2023-05-15T13:52:46.261Z,30.90
2023-05-15T13:55:14.740Z,30.98
2023-05-15T13:57:44.209Z,30.83
2023-05-15T14:00:13.989Z,31.35
2023-05-15T14:02:43.033Z,31.94
2023-05-15T14:05:12.149Z,30.86
2023-05-15T14:07:42.085Z,31.35
2023-05-15T14:10:11.474Z,30.09
2023-05-15T14:12:39.978Z,31.65
2023-05-15T14:15:11.143Z,31.29
2023-05-15T14:17:39.537Z,32.87
2023-05-15T14:20:10.000Z,33.21
2023-05-15T14:22:38.258Z,31.53
2023-05-15T14:25:09.801Z,32.00
2023-05-15T14:27:38.057Z,32.47
2023-05-15T14:30:07.686Z,32.07
2023-05-15T14:32:36.021Z,32.01
2023-05-15T14:35:04.739Z,32.38
2023-05-15T14:37:33.024Z,32.48
2023-05-15T14:40:01.399Z,32.20
2023-05-15T14:42:31.178Z,31.40
2023-05-15T14:44:59.457Z,32.15
2023-05-15T14:47:29.989Z,30.99
2023-05-15T14:49:58.312Z,30.18
2023-05-15T14:52:26.554Z,31.43
2023-05-15T14:55:07.828Z,29.93
2023-05-15T14:57:39.110Z,29.31
2023-05-15T15:00:09.532Z,29.54
2023-05-15T15:02:37.798Z,28.58
2023-05-15T15:05:07.432Z,28.53
2023-05-15T15:07:59.091Z,27.88
2023-05-15T15:10:27.552Z,28.45
2023-05-15T15:12:57.340Z,27.66
2023-05-15T15:15:25.745Z,27.64
2023-05-15T15:17:54.372Z,28.89
2023-05-15T15:20:23.136Z,28.85
2023-05-15T15:22:51.751Z,29.30
2023-05-15T15:25:20.551Z,28.84
2023-05-15T15:27:49.009Z,28.68
2023-05-15T15:30:18.617Z,29.96
2023-05-15T15:32:47.237Z,29.74
2023-05-15T15:35:15.504Z,29.70
2023-05-15T15:37:43.725Z,29.91
2023-05-15T15:40:12.295Z,30.49
2023-05-15T15:42:40.789Z,30.47
2023-05-15T15:45:09.672Z,30.63
2023-05-15T15:47:39.407Z,30.15
2023-05-15T15:50:08.424Z,31.07
2023-05-15T15:52:36.766Z,30.46
2023-05-15T15:55:05.640Z,31.22
2023-05-15T15:57:34.186Z,30.13
2023-05-15T16:00:02.509Z,29.74
2023-05-15T16:02:30.929Z,30.06
2023-05-15T16:05:00.548Z,30.45
2023-05-15T16:07:28.831Z,31.63
2023-05-15T16:10:10.588Z,32.18
2023-05-15T16:12:42.335Z,32.49
2023-05-15T16:17:41.832Z,32.21
2023-05-15T16:20:12.412Z,32.42
2023-05-15T16:22:41.783Z,33.11
2023-05-15T16:25:10.649Z,31.71
2023-05-15T16:27:38.841Z,31.57
2023-05-15T16:30:09.150Z,30.34
2023-05-15T16:32:37.451Z,30.85
2023-05-15T16:35:06.686Z,29.97
2023-05-15T16:37:36.461Z,29.36
2023-05-15T16:40:05.238Z,29.87
2023-05-15T16:42:36.528Z,29.53
2023-05-15T16:45:05.592Z,29.25
2023-05-15T16:47:33.974Z,29.33
2023-05-15T16:50:02.371Z,29.73
2023-05-15T16:52:30.682Z,29.28
2023-05-15T16:55:00.323Z,29.90
2023-05-15T16:57:28.732Z,29.68
2023-05-15T16:59:57.056Z,29.27
2023-05-15T17:02:25.456Z,29.06
2023-05-15T17:04:54.082Z,28.93
2023-05-15T17:07:22.341Z,28.17
2023-05-15T17:09:50.805Z,26.88
2023-05-15T17:12:20.906Z,27.40
2023-05-15T17:14:49.287Z,27.23
2023-05-15T17:17:17.816Z,27.09
2023-05-15T17:19:46.173Z,27.61
2023-05-15T17:22:14.429Z,27.10
2023-05-15T17:27:31.096Z,27.03
2023-05-15T17:29:59.390Z,28.44
2023-05-15T17:32:27.704Z,27.78
2023-05-15T17:34:56.185Z,28.09
2023-05-15T17:37:24.383Z,27.07
2023-05-15T17:39:52.607Z,27.93
2023-05-15T17:42:21.154Z,28.18
2023-05-15T17:44:50.756Z,29.14
2023-05-15T17:47:19.006Z,28.05
2023-05-15T17:49:47.254Z,27.69
2023-05-15T17:52:15.584Z,27.74
2023-05-15T17:54:43.775Z,27.96
2023-05-15T17:57:12.082Z,27.34
2023-05-15T17:59:40.373Z,26.88
2023-05-15T18:02:09.999Z,28.05
2023-05-15T18:04:38.255Z,27.18
2023-05-15T18:07:06.523Z,28.22
2023-05-15T18:09:34.884Z,27.89
2023-05-15T18:12:03.058Z,27.98
2023-05-15T18:14:31.340Z,27.33
2023-05-15T18:16:59.575Z,27.73
2023-05-15T18:19:29.192Z,27.47
2023-05-15T18:21:57.574Z,28.16
2023-05-15T18:24:25.850Z,26.62
2023-05-15T18:26:54.114Z,27.43
2023-05-15T18:29:22.348Z,27.98
2023-05-15T18:31:50.700Z,27.38
2023-05-15T18:34:19.133Z,27.20
2023-05-15T18:36:51.875Z,27.61
2023-05-15T18:39:20.228Z,26.72
2023-05-15T18:41:48.465Z,28.36
2023-05-15T18:44:16.784Z,28.71
2023-05-15T18:46:45.121Z,28.62
2023-05-15T18:49:13.386Z,27.71
2023-05-15T18:51:41.689Z,27.99
2023-05-15T18:54:11.615Z,27.49
2023-05-15T18:56:41.802Z,27.12
2023-05-15T18:59:11.342Z,27.18
2023-05-15T19:01:39.665Z,26.53
2023-05-15T19:04:08.687Z,26.05
2023-05-15T19:06:36.952Z,26.84
2023-05-15T19:09:05.553Z,25.65
2023-05-15T19:11:35.225Z,26.10
2023-05-15T19:14:03.437Z,26.06
2023-05-15T19:16:32.157Z,26.35
2023-05-15T19:19:00.696Z,26.92
2023-05-15T19:21:29.286Z,25.16
2023-05-15T19:23:57.557Z,26.39
2023-05-15T19:26:25.824Z,26.03
2023-05-15T19:28:55.754Z,27.25
2023-05-15T19:31:31.456Z,27.28
2023-05-15T19:34:00.799Z,26.19
2023-05-15T19:36:29.082Z,27.18
2023-05-15T19:38:57.329Z,27.14
2023-05-15T19:41:25.696Z,26.17
2023-05-15T19:43:55.380Z,26.59
2023-05-15T19:46:23.667Z,26.90
2023-05-15T19:48:51.985Z,26.55
2023-05-15T19:51:20.215Z,27.51
2023-05-15T19:53:48.515Z,27.08
2023-05-15T19:56:16.726Z,27.20
2023-05-15T19:58:44.950Z,26.97
2023-05-15T20:01:14.740Z,26.30
2023-05-15T20:03:43.167Z,26.62
2023-05-15T20:06:12.098Z,26.67
2023-05-15T20:08:40.559Z,26.19
2023-05-15T20:11:08.877Z,26.51
2023-05-15T20:13:37.550Z,26.36
2023-05-15T20:16:09.914Z,26.28
2023-05-15T20:18:40.200Z,26.06
2023-05-15T20:21:08.642Z,26.01
2023-05-15T20:23:36.873Z,25.13
2023-05-15T20:26:05.326Z,25.55
2023-05-15T20:28:33.896Z,25.98
2023-05-15T20:31:03.067Z,26.01
2023-05-15T20:33:31.545Z,25.80
2023-05-15T20:36:02.328Z,26.45
2023-05-15T20:38:30.599Z,26.36
2023-05-15T20:40:58.892Z,26.21
2023-05-15T20:43:27.132Z,26.22
2023-05-15T20:45:55.642Z,26.33
2023-05-15T20:48:23.863Z,26.11
2023-05-15T20:50:53.729Z,26.82
2023-05-15T20:53:23.493Z,26.46
2023-05-15T20:55:51.713Z,26.36
2023-05-15T20:58:19.932Z,26.73
2023-05-15T21:00:48.654Z,26.28
2023-05-15T21:03:17.157Z,25.80
2023-05-15T21:05:45.810Z,25.69
2023-05-15T21:08:14.079Z,24.45
2023-05-15T21:10:43.649Z,25.29
2023-05-15T21:13:11.963Z,24.74
2023-05-15T21:15:40.198Z,25.40
2023-05-15T21:18:08.467Z,24.70
2023-05-15T21:20:36.730Z,24.87
2023-05-15T21:23:05.002Z,25.14
2023-05-15T21:25:33.941Z,25.98
2023-05-15T21:28:03.638Z,25.28
2023-05-15T21:30:32.339Z,24.51
2023-05-15T21:33:00.635Z,25.48
2023-05-15T21:35:31.703Z,24.68
2023-05-15T21:38:00.367Z,25.36
2023-05-15T21:40:28.908Z,25.47
2023-05-15T21:42:57.379Z,25.97
2023-05-15T21:45:27.004Z,26.12
2023-05-15T21:47:55.325Z,25.96
2023-05-15T21:50:23.670Z,24.84
2023-05-15T21:52:51.904Z,24.82
2023-05-15T21:55:20.395Z,25.60
2023-05-15T21:57:48.660Z,25.38
2023-05-15T22:00:17.719Z,25.10
2023-05-15T22:02:47.489Z,24.10
2023-05-15T22:05:16.134Z,25.38
2023-05-15T22:07:44.593Z,24.92
2023-05-15T22:10:16.373Z,26.15
2023-05-15T22:12:44.816Z,26.02
2023-05-15T22:15:14.493Z,25.63
2023-05-15T22:17:42.840Z,25.25
2023-05-15T22:20:13.964Z,25.64
2023-05-15T22:22:43.502Z,24.77
2023-05-15T22:25:11.947Z,25.05
2023-05-15T22:27:40.196Z,25.50
2023-05-15T22:30:09.773Z,24.94
2023-05-15T22:32:38.008Z,25.34
2023-05-15T22:35:07.296Z,24.86
2023-05-15T22:37:36.994Z,24.20
2023-05-15T22:40:07.493Z,24.35
2023-05-15T22:42:35.558Z,24.96
2023-05-15T22:45:04.177Z,23.97
2023-05-15T22:47:32.646Z,24.94
2023-05-15T22:50:00.924Z,25.38
2023-05-15T22:52:29.171Z,24.68
2023-05-15T22:54:58.743Z,25.27
2023-05-15T22:57:27.013Z,24.74
2023-05-15T22:59:55.576Z,24.84
2023-05-15T23:02:23.975Z,24.41
2023-05-15T23:04:52.238Z,24.82
2023-05-15T23:07:20.626Z,24.86
2023-05-15T23:09:48.866Z,24.27
2023-05-15T23:12:18.503Z,25.11
2023-05-15T23:14:46.742Z,25.77
2023-05-15T23:17:15.098Z,25.48
2023-05-15T23:19:43.414Z,24.20
2023-05-15T23:22:12.789Z,24.47
2023-05-15T23:24:41.038Z,24.45
2023-05-15T23:27:09.261Z,24.50
2023-05-15T23:29:38.871Z,24.93
2023-05-15T23:32:08.160Z,25.21
2023-05-15T23:34:36.390Z,26.10
2023-05-15T23:37:04.747Z,24.52
2023-05-15T23:39:32.952Z,25.47
2023-05-15T23:42:01.274Z,24.53
2023-05-15T23:44:31.412Z,24.03
2023-05-15T23:47:01.072Z,24.59
2023-05-15T23:49:29.346Z,24.00
2023-05-15T23:51:57.603Z,24.99
2023-05-15T23:54:25.992Z,24.53
2023-05-15T23:56:54.309Z,24.36
2023-05-15T23:59:22.760Z,25.59
